sensor_id;sensor_type;location;lat;lon;timestamp;P1;durP1;ratioP1;P2;durP2;ratioP2
1140;SDS011;559;48.628;8.924;2024-02-26T00:01:26;135.95;;;130.55;;
1140;SDS011;559;48.628;8.924;2024-02-26T00:03:56;136.20;;;130.80;;
1140;SDS011;559;48.628;8.924;2024-02-26T00:06:33;129.63;;;124.28;;
1140;SDS011;559;48.628;8.924;2024-02-26T00:09:05;128.27;;;122.97;;
1140;SDS011;559;48.628;8.924;2024-02-26T00:11:41;129.75;;;124.55;;
1140;SDS011;559;48.628;8.924;2024-02-26T00:14:15;128.15;;;123.13;;
1140;SDS011;559;48.628;8.924;2024-02-26T00:16:46;126.32;;;121.25;;
1140;SDS011;559;48.628;8.924;2024-02-26T00:19:23;125.97;;;120.97;;
1140;SDS011;559;48.628;8.924;2024-02-26T00:21:53;126.40;;;121.18;;
1140;SDS011;559;48.628;8.924;2024-02-26T00:24:22;124.93;;;119.95;;
1140;SDS011;559;48.628;8.924;2024-02-26T00:26:51;128.85;;;123.75;;
1140;SDS011;559;48.628;8.924;2024-02-26T00:29:24;131.45;;;125.93;;
1140;SDS011;559;48.628;8.924;2024-02-26T00:31:57;128.50;;;123.50;;
1140;SDS011;559;48.628;8.924;2024-02-26T00:34:29;126.03;;;121.03;;
1140;SDS011;559;48.628;8.924;2024-02-26T00:37:01;123.43;;;118.45;;
1140;SDS011;559;48.628;8.924;2024-02-26T00:39:34;119.95;;;114.90;;
1140;SDS011;559;48.628;8.924;2024-02-26T00:42:11;136.82;;;131.02;;
1140;SDS011;559;48.628;8.924;2024-02-26T00:44:52;154.80;;;148.13;;
1140;SDS011;559;48.628;8.924;2024-02-26T00:47:32;145.05;;;138.75;;
1140;SDS011;559;48.628;8.924;2024-02-26T00:50:02;130.05;;;124.55;;
1140;SDS011;559;48.628;8.924;2024-02-26T00:52:35;121.63;;;116.53;;
1140;SDS011;559;48.628;8.924;2024-02-26T00:55:05;118.40;;;113.53;;
1140;SDS011;559;48.628;8.924;2024-02-26T00:57:38;117.82;;;112.97;;
1140;SDS011;559;48.628;8.924;2024-02-26T01:00:17;110.57;;;105.75;;
1140;SDS011;559;48.628;8.924;2024-02-26T01:02:58;109.32;;;104.53;;
1140;SDS011;559;48.628;8.924;2024-02-26T01:05:32;104.70;;;100.35;;
1140;SDS011;559;48.628;8.924;2024-02-26T01:08:03;99.22;;;95.28;;
1140;SDS011;559;48.628;8.924;2024-02-26T01:10:33;96.72;;;92.82;;
1140;SDS011;559;48.628;8.924;2024-02-26T01:13:07;96.57;;;92.68;;
1140;SDS011;559;48.628;8.924;2024-02-26T01:15:44;92.85;;;89.15;;
1140;SDS011;559;48.628;8.924;2024-02-26T01:18:14;94.85;;;91.05;;
1140;SDS011;559;48.628;8.924;2024-02-26T01:20:49;89.97;;;86.47;;
1140;SDS011;559;48.628;8.924;2024-02-26T01:23:24;88.13;;;84.65;;
1140;SDS011;559;48.628;8.924;2024-02-26T01:25:56;90.50;;;86.90;;
1140;SDS011;559;48.628;8.924;2024-02-26T01:28:45;87.25;;;83.85;;
1140;SDS011;559;48.628;8.924;2024-02-26T01:31:19;84.68;;;81.38;;
1140;SDS011;559;48.628;8.924;2024-02-26T01:33:56;85.50;;;82.00;;
1140;SDS011;559;48.628;8.924;2024-02-26T01:36:27;79.85;;;76.55;;
1140;SDS011;559;48.628;8.924;2024-02-26T01:39:16;83.25;;;80.05;;
1140;SDS011;559;48.628;8.924;2024-02-26T01:41:49;82.78;;;79.68;;
1140;SDS011;559;48.628;8.924;2024-02-26T01:44:32;79.10;;;76.10;;
1140;SDS011;559;48.628;8.924;2024-02-26T01:47:04;77.25;;;74.25;;
1140;SDS011;559;48.628;8.924;2024-02-26T01:49:34;76.15;;;73.20;;
1140;SDS011;559;48.628;8.924;2024-02-26T01:52:11;75.35;;;72.35;;
1140;SDS011;559;48.628;8.924;2024-02-26T01:54:44;70.78;;;68.07;;
1140;SDS011;559;48.628;8.924;2024-02-26T01:57:16;76.15;;;73.25;;
1140;SDS011;559;48.628;8.924;2024-02-26T01:59:48;74.43;;;71.50;;
1140;SDS011;559;48.628;8.924;2024-02-26T02:02:37;84.78;;;81.32;;
1140;SDS011;559;48.628;8.924;2024-02-26T02:05:10;117.32;;;112.22;;
1140;SDS011;559;48.628;8.924;2024-02-26T02:07:42;118.95;;;114.07;;
1140;SDS011;559;48.628;8.924;2024-02-26T02:10:16;116.88;;;112.07;;
1140;SDS011;559;48.628;8.924;2024-02-26T02:12:52;110.20;;;105.70;;
1140;SDS011;559;48.628;8.924;2024-02-26T02:15:27;100.70;;;96.50;;
1140;SDS011;559;48.628;8.924;2024-02-26T02:18:02;102.18;;;97.80;;
1140;SDS011;559;48.628;8.924;2024-02-26T02:20:43;95.18;;;91.10;;
1140;SDS011;559;48.628;8.924;2024-02-26T02:23:33;93.53;;;89.63;;
1140;SDS011;559;48.628;8.924;2024-02-26T02:26:20;90.50;;;86.70;;
1140;SDS011;559;48.628;8.924;2024-02-26T02:28:56;88.65;;;85.00;;
1140;SDS011;559;48.628;8.924;2024-02-26T02:31:31;87.60;;;84.10;;
1140;SDS011;559;48.628;8.924;2024-02-26T02:34:07;78.40;;;75.20;;
1140;SDS011;559;48.628;8.924;2024-02-26T02:36:52;73.65;;;70.60;;
1140;SDS011;559;48.628;8.924;2024-02-26T02:39:24;74.55;;;71.45;;
1140;SDS011;559;48.628;8.924;2024-02-26T02:42:03;70.68;;;67.78;;
1140;SDS011;559;48.628;8.924;2024-02-26T02:44:37;72.85;;;69.65;;
1140;SDS011;559;48.628;8.924;2024-02-26T02:50:04;74.22;;;71.32;;
1140;SDS011;559;48.628;8.924;2024-02-26T02:52:38;75.35;;;72.45;;
1140;SDS011;559;48.628;8.924;2024-02-26T02:55:17;75.00;;;72.18;;
1140;SDS011;559;48.628;8.924;2024-02-26T02:57:50;79.00;;;75.93;;
1140;SDS011;559;48.628;8.924;2024-02-26T03:00:30;90.22;;;86.72;;
1140;SDS011;559;48.628;8.924;2024-02-26T03:03:03;92.32;;;88.63;;
1140;SDS011;559;48.628;8.924;2024-02-26T03:05:33;94.15;;;90.50;;
1140;SDS011;559;48.628;8.924;2024-02-26T03:08:24;96.60;;;92.78;;
1140;SDS011;559;48.628;8.924;2024-02-26T03:10:58;96.90;;;93.03;;
1140;SDS011;559;48.628;8.924;2024-02-26T03:13:42;96.50;;;92.60;;
1140;SDS011;559;48.628;8.924;2024-02-26T03:16:22;88.82;;;85.25;;
1140;SDS011;559;48.628;8.924;2024-02-26T03:18:51;81.50;;;78.05;;
1140;SDS011;559;48.628;8.924;2024-02-26T03:21:18;76.60;;;73.45;;
1140;SDS011;559;48.628;8.924;2024-02-26T03:23:58;68.68;;;66.05;;
1140;SDS011;559;48.628;8.924;2024-02-26T03:26:37;69.88;;;67.18;;
1140;SDS011;559;48.628;8.924;2024-02-26T03:29:18;74.97;;;71.97;;
1140;SDS011;559;48.628;8.924;2024-02-26T03:31:52;75.78;;;72.72;;
1140;SDS011;559;48.628;8.924;2024-02-26T03:34:27;77.85;;;74.75;;
1140;SDS011;559;48.628;8.924;2024-02-26T03:37:15;79.93;;;76.88;;
1140;SDS011;559;48.628;8.924;2024-02-26T03:39:54;78.65;;;75.65;;
1140;SDS011;559;48.628;8.924;2024-02-26T03:42:36;85.45;;;82.18;;
1140;SDS011;559;48.628;8.924;2024-02-26T03:45:18;89.05;;;85.53;;
1140;SDS011;559;48.628;8.924;2024-02-26T03:47:59;91.57;;;87.82;;
1140;SDS011;559;48.628;8.924;2024-02-26T03:50:32;95.00;;;91.20;;
1140;SDS011;559;48.628;8.924;2024-02-26T03:53:07;93.38;;;89.68;;
1140;SDS011;559;48.628;8.924;2024-02-26T03:55:42;97.75;;;93.80;;
1140;SDS011;559;48.628;8.924;2024-02-26T03:58:19;96.28;;;92.38;;
1140;SDS011;559;48.628;8.924;2024-02-26T04:00:50;96.45;;;92.55;;
1140;SDS011;559;48.628;8.924;2024-02-26T04:03:23;98.75;;;94.80;;
1140;SDS011;559;48.628;8.924;2024-02-26T04:05:59;100.35;;;96.30;;
1140;SDS011;559;48.628;8.924;2024-02-26T04:08:28;102.50;;;98.30;;
1140;SDS011;559;48.628;8.924;2024-02-26T04:11:03;107.10;;;102.80;;
1140;SDS011;559;48.628;8.924;2024-02-26T04:13:35;111.47;;;107.10;;
1140;SDS011;559;48.628;8.924;2024-02-26T04:16:12;116.13;;;111.53;;
1140;SDS011;559;48.628;8.924;2024-02-26T04:18:41;115.25;;;110.63;;
1140;SDS011;559;48.628;8.924;2024-02-26T04:21:12;109.55;;;105.05;;
1140;SDS011;559;48.628;8.924;2024-02-26T04:23:43;98.50;;;94.30;;
1140;SDS011;559;48.628;8.924;2024-02-26T04:26:27;93.40;;;89.50;;
1140;SDS011;559;48.628;8.924;2024-02-26T04:29:02;94.85;;;90.85;;
1140;SDS011;559;48.628;8.924;2024-02-26T04:31:36;99.20;;;94.78;;
1140;SDS011;559;48.628;8.924;2024-02-26T04:34:07;90.55;;;86.85;;
1140;SDS011;559;48.628;8.924;2024-02-26T04:36:41;86.22;;;82.72;;
1140;SDS011;559;48.628;8.924;2024-02-26T04:39:18;95.38;;;91.38;;
1140;SDS011;559;48.628;8.924;2024-02-26T04:41:59;92.20;;;88.25;;
1140;SDS011;559;48.628;8.924;2024-02-26T04:44:31;95.78;;;91.38;;
1140;SDS011;559;48.628;8.924;2024-02-26T04:47:14;95.30;;;91.20;;
1140;SDS011;559;48.628;8.924;2024-02-26T04:49:55;96.88;;;92.72;;
1140;SDS011;559;48.628;8.924;2024-02-26T04:52:30;95.15;;;91.07;;
1140;SDS011;559;48.628;8.924;2024-02-26T04:55:07;93.45;;;89.43;;
1140;SDS011;559;48.628;8.924;2024-02-26T04:57:40;90.90;;;86.95;;
1140;SDS011;559;48.628;8.924;2024-02-26T05:00:12;96.13;;;92.13;;
1140;SDS011;559;48.628;8.924;2024-02-26T05:02:45;87.00;;;83.10;;
1140;SDS011;559;48.628;8.924;2024-02-26T05:05:15;94.55;;;90.05;;
1140;SDS011;559;48.628;8.924;2024-02-26T05:07:46;84.88;;;80.95;;
1140;SDS011;559;48.628;8.924;2024-02-26T05:10:26;80.53;;;76.97;;
1140;SDS011;559;48.628;8.924;2024-02-26T05:12:59;81.22;;;77.63;;
1140;SDS011;559;48.628;8.924;2024-02-26T05:15:29;87.10;;;83.28;;
1140;SDS011;559;48.628;8.924;2024-02-26T05:18:01;82.60;;;78.70;;
1140;SDS011;559;48.628;8.924;2024-02-26T05:20:32;87.00;;;83.10;;
1140;SDS011;559;48.628;8.924;2024-02-26T05:23:19;86.32;;;82.45;;
1140;SDS011;559;48.628;8.924;2024-02-26T05:26:01;90.22;;;86.13;;
1140;SDS011;559;48.628;8.924;2024-02-26T05:28:41;97.18;;;92.47;;
1140;SDS011;559;48.628;8.924;2024-02-26T05:31:12;91.47;;;87.18;;
1140;SDS011;559;48.628;8.924;2024-02-26T05:34:03;89.95;;;85.65;;
1140;SDS011;559;48.628;8.924;2024-02-26T05:36:40;92.07;;;87.88;;
1140;SDS011;559;48.628;8.924;2024-02-26T05:39:14;92.25;;;87.95;;
1140;SDS011;559;48.628;8.924;2024-02-26T05:41:46;93.80;;;89.50;;
1140;SDS011;559;48.628;8.924;2024-02-26T05:44:19;95.55;;;91.07;;
1140;SDS011;559;48.628;8.924;2024-02-26T05:47:14;100.90;;;96.00;;
1140;SDS011;559;48.628;8.924;2024-02-26T05:49:48;107.03;;;101.97;;
1140;SDS011;559;48.628;8.924;2024-02-26T05:52:18;117.20;;;111.47;;
1140;SDS011;559;48.628;8.924;2024-02-26T05:54:56;115.70;;;109.82;;
1140;SDS011;559;48.628;8.924;2024-02-26T05:57:28;125.88;;;119.53;;
1140;SDS011;559;48.628;8.924;2024-02-26T06:00:05;128.80;;;122.22;;
1140;SDS011;559;48.628;8.924;2024-02-26T06:02:34;123.50;;;116.70;;
1140;SDS011;559;48.628;8.924;2024-02-26T06:05:09;119.68;;;113.18;;
1140;SDS011;559;48.628;8.924;2024-02-26T06:07:45;123.15;;;116.80;;
1140;SDS011;559;48.628;8.924;2024-02-26T06:10:17;127.15;;;120.72;;
1140;SDS011;559;48.628;8.924;2024-02-26T06:12:48;123.70;;;117.45;;
1140;SDS011;559;48.628;8.924;2024-02-26T06:15:23;122.47;;;116.20;;
1140;SDS011;559;48.628;8.924;2024-02-26T06:17:56;126.32;;;119.72;;
1140;SDS011;559;48.628;8.924;2024-02-26T06:20:43;118.45;;;112.32;;
1140;SDS011;559;48.628;8.924;2024-02-26T06:23:25;119.90;;;113.70;;
1140;SDS011;559;48.628;8.924;2024-02-26T06:28:53;117.03;;;110.90;;
1140;SDS011;559;48.628;8.924;2024-02-26T06:31:24;110.25;;;104.05;;
1140;SDS011;559;48.628;8.924;2024-02-26T06:33:56;115.07;;;108.90;;
1140;SDS011;559;48.628;8.924;2024-02-26T06:36:53;114.05;;;107.88;;
1140;SDS011;559;48.628;8.924;2024-02-26T06:39:22;113.57;;;107.38;;
1140;SDS011;559;48.628;8.924;2024-02-26T06:41:53;112.63;;;106.38;;
1140;SDS011;559;48.628;8.924;2024-02-26T06:44:30;114.68;;;108.18;;
1140;SDS011;559;48.628;8.924;2024-02-26T06:47:03;121.15;;;114.38;;
1140;SDS011;559;48.628;8.924;2024-02-26T06:49:39;122.50;;;115.70;;
1140;SDS011;559;48.628;8.924;2024-02-26T06:52:29;120.07;;;113.47;;
1140;SDS011;559;48.628;8.924;2024-02-26T06:55:01;119.00;;;112.32;;
1140;SDS011;559;48.628;8.924;2024-02-26T06:57:30;115.53;;;109.15;;
1140;SDS011;559;48.628;8.924;2024-02-26T06:59:56;117.40;;;110.70;;
1140;SDS011;559;48.628;8.924;2024-02-26T07:02:25;119.72;;;113.22;;
1140;SDS011;559;48.628;8.924;2024-02-26T07:05:00;112.93;;;106.85;;
1140;SDS011;559;48.628;8.924;2024-02-26T07:07:28;118.13;;;111.85;;
1140;SDS011;559;48.628;8.924;2024-02-26T07:09:58;117.68;;;111.38;;
1140;SDS011;559;48.628;8.924;2024-02-26T07:12:38;116.88;;;110.38;;
1140;SDS011;559;48.628;8.924;2024-02-26T07:15:15;117.63;;;111.32;;
1140;SDS011;559;48.628;8.924;2024-02-26T07:17:53;115.05;;;108.75;;
1140;SDS011;559;48.628;8.924;2024-02-26T07:20:37;110.60;;;104.60;;
1140;SDS011;559;48.628;8.924;2024-02-26T07:23:12;111.65;;;105.65;;
1140;SDS011;559;48.628;8.924;2024-02-26T07:25:45;110.07;;;104.00;;
1140;SDS011;559;48.628;8.924;2024-02-26T07:28:22;119.50;;;113.03;;
1140;SDS011;559;48.628;8.924;2024-02-26T07:30:57;123.15;;;116.38;;
1140;SDS011;559;48.628;8.924;2024-02-26T07:33:38;124.70;;;117.30;;
1140;SDS011;559;48.628;8.924;2024-02-26T07:36:11;130.75;;;123.30;;
1140;SDS011;559;48.628;8.924;2024-02-26T07:39:00;133.13;;;125.40;;
1140;SDS011;559;48.628;8.924;2024-02-26T07:41:27;134.02;;;126.32;;
1140;SDS011;559;48.628;8.924;2024-02-26T07:44:07;135.20;;;127.40;;
1140;SDS011;559;48.628;8.924;2024-02-26T07:46:41;136.65;;;128.85;;
1140;SDS011;559;48.628;8.924;2024-02-26T07:49:21;140.38;;;132.18;;
1140;SDS011;559;48.628;8.924;2024-02-26T07:52:12;129.43;;;121.90;;
1140;SDS011;559;48.628;8.924;2024-02-26T07:54:39;128.25;;;120.85;;
1140;SDS011;559;48.628;8.924;2024-02-26T07:57:14;130.77;;;123.32;;
1140;SDS011;559;48.628;8.924;2024-02-26T07:59:46;129.95;;;122.65;;
1140;SDS011;559;48.628;8.924;2024-02-26T08:02:25;130.05;;;122.78;;
1140;SDS011;559;48.628;8.924;2024-02-26T08:04:58;135.80;;;128.80;;
1140;SDS011;559;48.628;8.924;2024-02-26T08:07:27;124.03;;;117.63;;
1140;SDS011;559;48.628;8.924;2024-02-26T08:12:55;107.63;;;102.03;;
1140;SDS011;559;48.628;8.924;2024-02-26T08:15:38;104.00;;;98.70;;
1140;SDS011;559;48.628;8.924;2024-02-26T08:18:11;100.20;;;95.00;;
1140;SDS011;559;48.628;8.924;2024-02-26T08:20:57;101.55;;;96.15;;
1140;SDS011;559;48.628;8.924;2024-02-26T08:23:29;108.28;;;102.68;;
1140;SDS011;559;48.628;8.924;2024-02-26T08:26:06;106.63;;;101.13;;
1140;SDS011;559;48.628;8.924;2024-02-26T08:28:36;100.65;;;95.35;;
1140;SDS011;559;48.628;8.924;2024-02-26T08:31:06;95.53;;;90.53;;
1140;SDS011;559;48.628;8.924;2024-02-26T08:33:39;96.28;;;91.18;;
1140;SDS011;559;48.628;8.924;2024-02-26T08:36:21;101.88;;;96.25;;
1140;SDS011;559;48.628;8.924;2024-02-26T08:39:01;93.40;;;88.40;;
1140;SDS011;559;48.628;8.924;2024-02-26T08:41:33;92.32;;;87.38;;
1140;SDS011;559;48.628;8.924;2024-02-26T08:44:08;95.75;;;90.85;;
1140;SDS011;559;48.628;8.924;2024-02-26T08:46:41;92.53;;;87.63;;
1140;SDS011;559;48.628;8.924;2024-02-26T08:49:20;91.28;;;86.32;;
1140;SDS011;559;48.628;8.924;2024-02-26T08:52:07;93.82;;;88.65;;
1140;SDS011;559;48.628;8.924;2024-02-26T08:54:50;84.68;;;80.43;;
1140;SDS011;559;48.628;8.924;2024-02-26T08:57:37;87.25;;;82.90;;
1140;SDS011;559;48.628;8.924;2024-02-26T09:00:15;92.88;;;88.18;;
1140;SDS011;559;48.628;8.924;2024-02-26T09:02:49;90.10;;;85.53;;
1140;SDS011;559;48.628;8.924;2024-02-26T09:05:23;87.05;;;82.60;;
1140;SDS011;559;48.628;8.924;2024-02-26T09:07:56;94.22;;;89.32;;
1140;SDS011;559;48.628;8.924;2024-02-26T09:10:26;98.25;;;93.13;;
1140;SDS011;559;48.628;8.924;2024-02-26T09:12:57;99.40;;;94.20;;
1140;SDS011;559;48.628;8.924;2024-02-26T09:15:39;106.82;;;101.40;;
1140;SDS011;559;48.628;8.924;2024-02-26T09:18:14;101.00;;;95.70;;
1140;SDS011;559;48.628;8.924;2024-02-26T09:20:43;97.60;;;92.30;;
1140;SDS011;559;48.628;8.924;2024-02-26T09:23:25;93.63;;;88.53;;
1140;SDS011;559;48.628;8.924;2024-02-26T09:26:09;88.13;;;83.32;;
1140;SDS011;559;48.628;8.924;2024-02-26T09:28:47;88.85;;;84.15;;
1140;SDS011;559;48.628;8.924;2024-02-26T09:31:19;78.88;;;74.72;;
1140;SDS011;559;48.628;8.924;2024-02-26T09:33:55;77.28;;;73.18;;
1140;SDS011;559;48.628;8.924;2024-02-26T09:36:24;74.15;;;70.25;;
1140;SDS011;559;48.628;8.924;2024-02-26T09:38:52;64.35;;;60.85;;
1140;SDS011;559;48.628;8.924;2024-02-26T09:41:26;70.75;;;66.97;;
1140;SDS011;559;48.628;8.924;2024-02-26T09:44:01;64.55;;;61.05;;
1140;SDS011;559;48.628;8.924;2024-02-26T09:46:28;62.38;;;59.00;;
1140;SDS011;559;48.628;8.924;2024-02-26T09:48:56;64.18;;;60.65;;
1140;SDS011;559;48.628;8.924;2024-02-26T09:51:23;59.70;;;56.50;;
1140;SDS011;559;48.628;8.924;2024-02-26T09:53:52;58.45;;;55.30;;
1140;SDS011;559;48.628;8.924;2024-02-26T09:56:19;57.33;;;54.22;;
1140;SDS011;559;48.628;8.924;2024-02-26T09:58:45;58.22;;;55.03;;
1140;SDS011;559;48.628;8.924;2024-02-26T10:01:16;54.05;;;51.35;;
1140;SDS011;559;48.628;8.924;2024-02-26T10:03:44;55.05;;;52.25;;
1140;SDS011;559;48.628;8.924;2024-02-26T10:06:14;55.92;;;53.03;;
1140;SDS011;559;48.628;8.924;2024-02-26T10:08:41;52.95;;;50.38;;
1140;SDS011;559;48.628;8.924;2024-02-26T10:11:09;54.70;;;52.05;;
1140;SDS011;559;48.628;8.924;2024-02-26T10:13:36;55.60;;;52.90;;
1140;SDS011;559;48.628;8.924;2024-02-26T10:16:03;54.42;;;51.80;;
1140;SDS011;559;48.628;8.924;2024-02-26T10:18:44;51.55;;;49.20;;
1140;SDS011;559;48.628;8.924;2024-02-26T10:21:11;52.92;;;50.63;;
1140;SDS011;559;48.628;8.924;2024-02-26T10:23:38;52.10;;;49.80;;
1140;SDS011;559;48.628;8.924;2024-02-26T10:26:05;51.00;;;48.80;;
1140;SDS011;559;48.628;8.924;2024-02-26T10:28:34;48.47;;;46.58;;
1140;SDS011;559;48.628;8.924;2024-02-26T10:31:00;47.17;;;45.38;;
1140;SDS011;559;48.628;8.924;2024-02-26T10:33:27;46.67;;;44.88;;
1140;SDS011;559;48.628;8.924;2024-02-26T10:35:53;48.15;;;46.35;;
1140;SDS011;559;48.628;8.924;2024-02-26T10:38:20;46.53;;;44.83;;
1140;SDS011;559;48.628;8.924;2024-02-26T10:40:47;47.92;;;45.97;;
1140;SDS011;559;48.628;8.924;2024-02-26T10:43:15;47.30;;;45.50;;
1140;SDS011;559;48.628;8.924;2024-02-26T10:45:42;45.70;;;44.10;;
1140;SDS011;559;48.628;8.924;2024-02-26T10:48:09;46.00;;;44.40;;
1140;SDS011;559;48.628;8.924;2024-02-26T10:50:37;45.47;;;43.85;;
1140;SDS011;559;48.628;8.924;2024-02-26T10:53:05;45.40;;;43.80;;
1140;SDS011;559;48.628;8.924;2024-02-26T10:55:36;44.40;;;42.85;;
1140;SDS011;559;48.628;8.924;2024-02-26T10:58:03;38.97;;;37.75;;
1140;SDS011;559;48.628;8.924;2024-02-26T11:00:30;39.03;;;37.72;;
1140;SDS011;559;48.628;8.924;2024-02-26T11:02:58;42.95;;;41.55;;
1140;SDS011;559;48.628;8.924;2024-02-26T11:05:28;45.70;;;44.22;;
1140;SDS011;559;48.628;8.924;2024-02-26T11:07:54;43.15;;;41.75;;
1140;SDS011;559;48.628;8.924;2024-02-26T11:10:22;24.33;;;23.63;;
1140;SDS011;559;48.628;8.924;2024-02-26T11:12:50;29.48;;;28.63;;
1140;SDS011;559;48.628;8.924;2024-02-26T11:15:17;30.00;;;29.20;;
1140;SDS011;559;48.628;8.924;2024-02-26T11:17:44;30.25;;;29.38;;
1140;SDS011;559;48.628;8.924;2024-02-26T11:20:13;37.03;;;35.83;;
1140;SDS011;559;48.628;8.924;2024-02-26T11:22:40;33.03;;;32.03;;
1140;SDS011;559;48.628;8.924;2024-02-26T11:25:07;25.00;;;24.40;;
1140;SDS011;559;48.628;8.924;2024-02-26T11:27:37;36.55;;;35.55;;
1140;SDS011;559;48.628;8.924;2024-02-26T11:30:08;41.33;;;40.22;;
1140;SDS011;559;48.628;8.924;2024-02-26T11:32:36;30.05;;;29.30;;
1140;SDS011;559;48.628;8.924;2024-02-26T11:35:03;27.27;;;26.58;;
1140;SDS011;559;48.628;8.924;2024-02-26T11:37:32;30.50;;;29.70;;
1140;SDS011;559;48.628;8.924;2024-02-26T11:39:59;38.60;;;37.30;;
1140;SDS011;559;48.628;8.924;2024-02-26T11:42:26;27.15;;;26.45;;
1140;SDS011;559;48.628;8.924;2024-02-26T11:44:53;17.70;;;17.15;;
1140;SDS011;559;48.628;8.924;2024-02-26T11:47:21;24.80;;;23.90;;
1140;SDS011;559;48.628;8.924;2024-02-26T11:49:48;23.02;;;22.40;;
1140;SDS011;559;48.628;8.924;2024-02-26T11:52:15;21.17;;;20.58;;
1140;SDS011;559;48.628;8.924;2024-02-26T11:54:47;10.82;;;10.48;;
1140;SDS011;559;48.628;8.924;2024-02-26T11:57:21;9.30;;;9.00;;
1140;SDS011;559;48.628;8.924;2024-02-26T11:59:52;9.00;;;8.70;;
1140;SDS011;559;48.628;8.924;2024-02-26T12:02:38;15.55;;;15.05;;
1140;SDS011;559;48.628;8.924;2024-02-26T12:05:06;14.68;;;14.10;;
1140;SDS011;559;48.628;8.924;2024-02-26T12:07:34;16.92;;;16.42;;
1140;SDS011;559;48.628;8.924;2024-02-26T12:10:16;13.40;;;13.00;;
1140;SDS011;559;48.628;8.924;2024-02-26T12:12:50;15.27;;;14.77;;
1140;SDS011;559;48.628;8.924;2024-02-26T12:15:19;7.10;;;6.90;;
1140;SDS011;559;48.628;8.924;2024-02-26T12:17:49;5.97;;;5.78;;
1140;SDS011;559;48.628;8.924;2024-02-26T12:20:16;8.18;;;7.80;;
1140;SDS011;559;48.628;8.924;2024-02-26T12:22:44;11.80;;;11.40;;
1140;SDS011;559;48.628;8.924;2024-02-26T12:25:12;12.43;;;12.10;;
1140;SDS011;559;48.628;8.924;2024-02-26T12:27:40;7.18;;;6.88;;
1140;SDS011;559;48.628;8.924;2024-02-26T12:30:07;7.80;;;7.40;;
1140;SDS011;559;48.628;8.924;2024-02-26T12:32:34;7.22;;;6.93;;
1140;SDS011;559;48.628;8.924;2024-02-26T12:35:01;7.25;;;6.95;;
1140;SDS011;559;48.628;8.924;2024-02-26T12:37:28;4.10;;;4.00;;
1140;SDS011;559;48.628;8.924;2024-02-26T12:39:54;4.85;;;4.70;;
1140;SDS011;559;48.628;8.924;2024-02-26T12:42:21;3.10;;;3.00;;
1140;SDS011;559;48.628;8.924;2024-02-26T12:44:49;3.90;;;3.05;;
1140;SDS011;559;48.628;8.924;2024-02-26T12:47:16;3.47;;;3.28;;
1140;SDS011;559;48.628;8.924;2024-02-26T12:49:43;2.92;;;2.83;;
1140;SDS011;559;48.628;8.924;2024-02-26T12:52:13;5.32;;;5.10;;
1140;SDS011;559;48.628;8.924;2024-02-26T12:54:39;4.03;;;3.92;;
1140;SDS011;559;48.628;8.924;2024-02-26T12:57:07;3.25;;;3.15;;
1140;SDS011;559;48.628;8.924;2024-02-26T12:59:34;1.73;;;1.63;;
1140;SDS011;559;48.628;8.924;2024-02-26T13:02:03;2.30;;;2.20;;
1140;SDS011;559;48.628;8.924;2024-02-26T13:04:31;3.00;;;2.90;;
1140;SDS011;559;48.628;8.924;2024-02-26T13:06:59;1.30;;;1.23;;
1140;SDS011;559;48.628;8.924;2024-02-26T13:09:32;1.63;;;1.50;;
1140;SDS011;559;48.628;8.924;2024-02-26T13:12:03;3.47;;;3.38;;
1140;SDS011;559;48.628;8.924;2024-02-26T13:14:34;2.78;;;2.63;;
1140;SDS011;559;48.628;8.924;2024-02-26T13:17:03;1.55;;;1.40;;
1140;SDS011;559;48.628;8.924;2024-02-26T13:19:31;1.25;;;1.15;;
1140;SDS011;559;48.628;8.924;2024-02-26T13:22:03;1.88;;;1.77;;
1140;SDS011;559;48.628;8.924;2024-02-26T13:24:31;1.98;;;1.88;;
1140;SDS011;559;48.628;8.924;2024-02-26T13:26:59;2.80;;;2.70;;
1140;SDS011;559;48.628;8.924;2024-02-26T13:29:28;3.00;;;2.90;;
1140;SDS011;559;48.628;8.924;2024-02-26T13:58:26;2.65;;;1.15;;
1140;SDS011;559;48.628;8.924;2024-02-26T14:04:21;1.07;;;1.00;;
1140;SDS011;559;48.628;8.924;2024-02-26T14:05:10;0.90;;;0.70;;
1140;SDS011;559;48.628;8.924;2024-02-26T14:18:26;1.20;;;0.70;;
1140;SDS011;559;48.628;8.924;2024-02-26T15:06:38;1.10;;;1.00;;
1140;SDS011;559;48.628;8.924;2024-02-26T15:13:33;0.90;;;0.73;;
1140;SDS011;559;48.628;8.924;2024-02-26T15:16:57;1.08;;;0.70;;
1140;SDS011;559;48.628;8.924;2024-02-26T15:20:09;1.10;;;0.98;;
1140;SDS011;559;48.628;8.924;2024-02-26T15:25:45;2.88;;;2.53;;
1140;SDS011;559;48.628;8.924;2024-02-26T20:17:41;60.42;;;58.40;;
1140;SDS011;559;48.628;8.924;2024-02-26T20:20:08;54.58;;;52.92;;
1140;SDS011;559;48.628;8.924;2024-02-26T20:22:35;55.15;;;53.05;;
1140;SDS011;559;48.628;8.924;2024-02-26T20:25:02;47.00;;;45.50;;
1140;SDS011;559;48.628;8.924;2024-02-26T20:27:28;47.22;;;45.20;;
1140;SDS011;559;48.628;8.924;2024-02-26T20:29:56;40.67;;;39.08;;
1140;SDS011;559;48.628;8.924;2024-02-26T20:32:23;45.38;;;43.47;;
1140;SDS011;559;48.628;8.924;2024-02-26T20:34:51;39.95;;;38.65;;
1140;SDS011;559;48.628;8.924;2024-02-26T20:37:18;45.92;;;44.22;;
1140;SDS011;559;48.628;8.924;2024-02-26T20:39:47;52.15;;;50.05;;
1140;SDS011;559;48.628;8.924;2024-02-26T20:42:13;46.63;;;45.13;;
1140;SDS011;559;48.628;8.924;2024-02-26T20:44:40;49.17;;;47.53;;
1140;SDS011;559;48.628;8.924;2024-02-26T20:47:08;51.25;;;49.35;;
1140;SDS011;559;48.628;8.924;2024-02-26T20:49:35;53.45;;;51.65;;
1140;SDS011;559;48.628;8.924;2024-02-26T20:52:04;59.22;;;56.85;;
1140;SDS011;559;48.628;8.924;2024-02-26T20:54:40;56.13;;;54.35;;
1140;SDS011;559;48.628;8.924;2024-02-26T20:57:08;59.50;;;57.60;;
1140;SDS011;559;48.628;8.924;2024-02-26T20:59:36;59.63;;;57.78;;
1140;SDS011;559;48.628;8.924;2024-02-26T21:02:08;59.25;;;57.45;;
1140;SDS011;559;48.628;8.924;2024-02-26T21:04:36;68.72;;;66.50;;
1140;SDS011;559;48.628;8.924;2024-02-26T21:07:04;68.97;;;66.72;;
1140;SDS011;559;48.628;8.924;2024-02-26T21:09:31;66.32;;;64.13;;
1140;SDS011;559;48.628;8.924;2024-02-26T23:07:38;119.60;;;115.43;;
1140;SDS011;559;48.628;8.924;2024-02-26T23:10:05;122.20;;;117.85;;
1140;SDS011;559;48.628;8.924;2024-02-26T23:12:32;125.30;;;120.82;;
1140;SDS011;559;48.628;8.924;2024-02-26T23:14:58;129.55;;;124.85;;
1140;SDS011;559;48.628;8.924;2024-02-26T23:17:25;136.65;;;131.60;;
1140;SDS011;559;48.628;8.924;2024-02-26T23:19:51;135.77;;;130.77;;
1140;SDS011;559;48.628;8.924;2024-02-26T23:22:18;130.93;;;126.05;;
1140;SDS011;559;48.628;8.924;2024-02-26T23:24:47;134.23;;;129.15;;
1140;SDS011;559;48.628;8.924;2024-02-26T23:27:13;126.95;;;122.05;;
1140;SDS011;559;48.628;8.924;2024-02-26T23:29:40;126.28;;;121.40;;
1140;SDS011;559;48.628;8.924;2024-02-26T23:32:06;124.80;;;120.00;;
1140;SDS011;559;48.628;8.924;2024-02-26T23:34:33;131.30;;;126.13;;
1140;SDS011;559;48.628;8.924;2024-02-26T23:36:59;130.93;;;125.78;;
1140;SDS011;559;48.628;8.924;2024-02-26T23:39:26;137.70;;;132.25;;
1140;SDS011;559;48.628;8.924;2024-02-26T23:41:54;134.85;;;129.50;;
1140;SDS011;559;48.628;8.924;2024-02-26T23:44:20;131.15;;;125.93;;
1140;SDS011;559;48.628;8.924;2024-02-26T23:46:47;130.73;;;125.32;;
1140;SDS011;559;48.628;8.924;2024-02-26T23:49:13;127.35;;;122.25;;
1140;SDS011;559;48.628;8.924;2024-02-26T23:51:40;132.68;;;127.45;;
1140;SDS011;559;48.628;8.924;2024-02-26T23:54:06;129.85;;;124.75;;
1140;SDS011;559;48.628;8.924;2024-02-26T23:56:33;128.95;;;123.85;;